Airfield :
LOGIN :

Register | Disclaimer

   EN    FR    IT 

 










Legend :    VFR   Marginal VFR   IFR   Intensive IFR   Very Intensive IFR
Visi :
Ceiling :
>= 8 km
>= 3000ft
5 to 8 km
1000 to 3000 ft
1500m to 5 km
500 to 1000 ft
800 to 1500m
200 to 500 ft
< 800m
< 200 ft
Symbols :   Thunderstorms  Fog  Heavy snow  Heavy precipitations  Wind > 20 kt
SIGMETs :     Misc.  Thunderstorms  Icing  Turbulence  Mountain Waves  Volcanic Ashes






- Airport Elevation : 13 ft
- IATA code : CEQ


LFMD - Cannes Mandelieu

CURRENT METAR :
  • 122100Z AUTO 01004KT 340V080 CAVOK 06/02 Q0995

EXPIRED METARs :
  • 122030Z AUTO 36003KT 330V030 CAVOK 07/02 Q0995
  • 122000Z AUTO VRB02KT CAVOK 07/03 Q0995
  • 121930Z AUTO 02004KT 340V080 CAVOK 07/03 Q0995
  • 121900Z AUTO VRB03KT CAVOK 08/04 Q0995 NOSIG
  • 121830Z AUTO VRB03KT CAVOK 09/04 Q0995 NOSIG

TAF TAF LFMD
Valid from the 12 at 15:00 until the 13 at 15:00 UTC


121400Z 1215/1315 VRB02KT CAVOK
PROB40
TEMPO 1301/1306 30010G20KT
BECMG 1310/1312 27010KT
ATIS : +33 4 93 48 73 23



MET'MAP, your aeronautical weather chart ! - Copyright ORBIFLY December 2007 - Disclaimer

ORBIFLY MET'MAP TEAM :

Programming & Development : Alexandra Zaïnal
Concept & Development : Baudouin d'Aumeries
Co-Development & Prog : Marc-Olivier Méhu
Technical & hardware support : Manuel Goepfert

Contact : metmap@orbifly.com




SOURCES & CREDITS :

   NOAA